YCCY

Cloncurry Airport

Cloncurry, Australia
METAR YCCY 231100Z AUTO 35006KT //// // ////// 29/23 Q1005
Observed Flight Rules
Feb-23 @ 11:00 UTC (57 minutes ago)
Wind
350° at 6 knots
Temperatures Readings
Current 29°C / 84°F
Dewpoint 23°C / 73°F
Humidity 70%
Altimeter 29.68" Hg
Pressure 1005 hPa
Elevation 570
METAR YCCY 231100Z AUTO 35006KT //// // ////// 29/23 Q1005
Observed Flight Rules
Feb-23 @ 11:00 UTC
(57 minutes ago)
Wind
350° at 6 knots
Temperature Dewpoint
29°C / 84°F 23°C / 73°F
Humidity Altimeter Pressure
70% 29.68" Hg 1005 hPa